createdAt,value
2019-03-29T00:01:31.560Z,7.05
2019-03-29T00:03:57.800Z,7.04
2019-03-29T00:06:24.055Z,7.01
2019-03-29T00:08:50.283Z,6.99
2019-03-29T00:11:16.397Z,6.94
2019-03-29T00:13:43.624Z,6.90
2019-03-29T00:16:10.994Z,6.86
2019-03-29T00:18:37.887Z,6.87
2019-03-29T00:21:03.972Z,6.87
2019-03-29T00:23:30.178Z,6.86
2019-03-29T00:25:56.381Z,6.86
2019-03-29T00:28:22.593Z,6.86
2019-03-29T00:30:48.738Z,6.87
2019-03-29T00:33:14.914Z,6.91
2019-03-29T00:35:41.072Z,6.93
2019-03-29T00:38:07.246Z,6.93
2019-03-29T00:40:33.472Z,6.93
2019-03-29T00:42:59.529Z,6.93
2019-03-29T00:45:25.870Z,6.94
2019-03-29T00:47:52.007Z,6.95
2019-03-29T00:50:18.187Z,6.96
2019-03-29T00:52:44.343Z,6.96
2019-03-29T00:55:10.598Z,6.95
2019-03-29T00:57:36.879Z,6.93
2019-03-29T01:00:07.008Z,6.93
2019-03-29T01:02:33.664Z,6.94
2019-03-29T01:04:59.901Z,6.94
2019-03-29T01:07:26.112Z,6.94
2019-03-29T01:09:52.200Z,6.94
2019-03-29T01:12:18.502Z,6.94
2019-03-29T01:14:44.662Z,6.93
2019-03-29T01:17:10.853Z,6.92
2019-03-29T01:19:36.967Z,6.91
2019-03-29T01:22:03.211Z,6.90
2019-03-29T01:24:29.347Z,6.90
2019-03-29T01:26:55.702Z,6.89
2019-03-29T01:29:21.905Z,6.89
2019-03-29T01:31:48.066Z,6.88
2019-03-29T01:34:14.225Z,6.90
2019-03-29T01:36:40.347Z,6.90
2019-03-29T01:39:06.710Z,6.85
2019-03-29T01:41:32.971Z,6.84
2019-03-29T01:43:59.201Z,6.86
2019-03-29T01:46:25.333Z,6.85
2019-03-29T01:48:51.587Z,6.84
2019-03-29T01:51:17.690Z,6.79
2019-03-29T01:53:43.900Z,6.75
2019-03-29T01:56:10.136Z,6.77
2019-03-29T01:58:36.357Z,6.78
2019-03-29T02:01:03.041Z,6.77
2019-03-29T02:03:29.407Z,6.73
2019-03-29T02:05:55.516Z,6.68
2019-03-29T02:08:34.834Z,6.66
2019-03-29T02:10:49.878Z,6.63
2019-03-29T02:13:16.117Z,6.59
2019-03-29T02:15:42.493Z,6.59
2019-03-29T02:18:08.620Z,6.59
2019-03-29T02:20:34.858Z,6.57
2019-03-29T02:23:01.018Z,6.57
2019-03-29T02:25:27.579Z,6.56
2019-03-29T02:27:53.689Z,6.57
2019-03-29T02:30:20.107Z,6.55
2019-03-29T02:32:46.349Z,6.53
2019-03-29T02:35:12.538Z,6.52
2019-03-29T02:37:38.695Z,6.52
2019-03-29T02:40:05.527Z,6.52
2019-03-29T02:42:31.818Z,6.54
2019-03-29T02:44:57.958Z,6.54
2019-03-29T02:47:24.188Z,6.52
2019-03-29T02:49:50.417Z,6.49
2019-03-29T02:52:16.502Z,6.48
2019-03-29T02:54:43.811Z,6.48
2019-03-29T02:57:09.995Z,6.45
2019-03-29T02:59:36.164Z,6.44
2019-03-29T03:02:02.620Z,6.43
2019-03-29T03:04:28.787Z,6.44
2019-03-29T03:06:54.953Z,6.44
2019-03-29T03:09:21.153Z,6.47
2019-03-29T03:11:47.419Z,6.48
2019-03-29T03:14:13.575Z,6.50
2019-03-29T03:16:40.941Z,6.49
2019-03-29T03:19:07.162Z,6.51
2019-03-29T03:21:33.331Z,6.53
2019-03-29T03:23:59.530Z,6.54
2019-03-29T03:26:25.672Z,6.55
2019-03-29T03:28:51.863Z,6.53
2019-03-29T03:31:18.023Z,6.54
2019-03-29T03:33:44.364Z,6.55
2019-03-29T03:36:10.713Z,6.56
2019-03-29T03:38:36.932Z,6.58
2019-03-29T03:41:03.519Z,6.58
2019-03-29T03:43:29.752Z,6.57
2019-03-29T03:45:55.867Z,6.55
2019-03-29T03:48:22.123Z,6.54
2019-03-29T03:50:48.200Z,6.52
2019-03-29T03:53:14.466Z,6.49
2019-03-29T03:55:41.235Z,6.49
2019-03-29T03:58:08.834Z,6.50
2019-03-29T04:00:50.949Z,6.48
2019-03-29T04:03:17.140Z,6.49
2019-03-29T04:05:43.440Z,6.49
2019-03-29T04:08:10.843Z,6.48
2019-03-29T04:10:37.079Z,6.49
2019-03-29T04:13:03.214Z,6.49
2019-03-29T04:15:29.795Z,6.48
2019-03-29T04:17:56.033Z,6.49
2019-03-29T04:20:22.159Z,6.50
2019-03-29T04:22:48.385Z,6.48
2019-03-29T04:25:14.668Z,6.49
2019-03-29T04:27:41.054Z,6.49
2019-03-29T04:30:07.920Z,6.49
2019-03-29T04:32:34.341Z,6.51
2019-03-29T04:35:01.181Z,6.52
2019-03-29T04:37:27.798Z,6.49
2019-03-29T04:40:06.904Z,6.49
2019-03-29T04:42:23.891Z,6.50
2019-03-29T04:44:52.361Z,6.52
2019-03-29T04:47:18.795Z,6.51
2019-03-29T04:49:45.043Z,6.51
2019-03-29T04:52:11.184Z,6.52
2019-03-29T04:54:38.504Z,6.53
2019-03-29T04:57:04.768Z,6.53
2019-03-29T04:59:31.064Z,6.53
2019-03-29T05:01:57.324Z,6.53
2019-03-29T05:04:23.511Z,6.50
2019-03-29T05:06:49.651Z,6.49
2019-03-29T05:09:15.849Z,6.47
2019-03-29T05:11:41.986Z,6.47
2019-03-29T05:14:08.252Z,6.47
2019-03-29T05:16:34.516Z,6.46
2019-03-29T05:19:00.805Z,6.40
2019-03-29T05:21:27.014Z,6.41
2019-03-29T05:23:53.583Z,6.44
2019-03-29T05:26:25.398Z,6.46
2019-03-29T05:28:51.590Z,6.44
2019-03-29T05:31:17.822Z,6.44
2019-03-29T05:33:46.201Z,6.47
2019-03-29T05:36:12.478Z,6.49
2019-03-29T05:38:38.705Z,6.49
2019-03-29T05:41:04.932Z,6.51
2019-03-29T05:43:31.115Z,6.52
2019-03-29T05:45:57.336Z,6.55
2019-03-29T05:48:23.480Z,6.54
2019-03-29T05:50:49.637Z,6.54
2019-03-29T05:53:15.796Z,6.58
2019-03-29T05:55:43.007Z,6.62
2019-03-29T05:58:09.204Z,6.65
2019-03-29T06:00:35.524Z,6.69
2019-03-29T06:03:02.705Z,6.71
2019-03-29T06:05:29.073Z,6.75
2019-03-29T06:07:55.450Z,6.81
2019-03-29T06:10:23.005Z,6.84
2019-03-29T06:12:49.213Z,6.86
2019-03-29T06:15:15.598Z,6.87
2019-03-29T06:17:48.679Z,6.92
2019-03-29T06:20:10.633Z,6.95
2019-03-29T06:22:36.924Z,6.99
2019-03-29T06:25:05.372Z,7.03
2019-03-29T06:27:31.932Z,7.09
2019-03-29T06:29:58.047Z,7.10
2019-03-29T06:32:24.305Z,7.13
2019-03-29T06:34:50.628Z,7.18
2019-03-29T06:37:19.842Z,7.22
2019-03-29T06:39:47.691Z,7.29
2019-03-29T06:42:13.863Z,7.30
2019-03-29T06:44:40.108Z,7.35
2019-03-29T06:47:06.485Z,7.42
2019-03-29T06:49:32.766Z,7.47
2019-03-29T06:51:59.062Z,7.49
2019-03-29T06:54:25.267Z,7.54
2019-03-29T06:56:51.513Z,7.55
2019-03-29T06:59:17.901Z,7.63
2019-03-29T07:01:46.438Z,7.72
2019-03-29T07:04:12.474Z,7.84
2019-03-29T07:06:38.688Z,7.92
2019-03-29T07:09:05.571Z,7.98
2019-03-29T07:11:32.041Z,8.03
2019-03-29T07:13:58.422Z,8.05
2019-03-29T07:16:24.536Z,8.09
2019-03-29T07:18:50.754Z,8.16
2019-03-29T07:21:21.904Z,8.20
2019-03-29T07:23:45.120Z,8.15
2019-03-29T07:26:11.256Z,8.04
2019-03-29T07:28:37.895Z,8.07
2019-03-29T07:31:05.390Z,8.11
2019-03-29T07:33:31.806Z,8.07
2019-03-29T07:35:57.970Z,7.99
2019-03-29T07:38:24.363Z,8.05
2019-03-29T07:40:51.058Z,8.10
2019-03-29T07:43:17.600Z,8.08
2019-03-29T07:45:44.007Z,7.96
2019-03-29T07:48:10.312Z,7.86
2019-03-29T07:50:36.718Z,7.82
2019-03-29T07:53:04.441Z,7.75
2019-03-29T07:55:31.569Z,7.63
2019-03-29T07:57:58.486Z,7.58
2019-03-29T08:00:25.284Z,7.52
2019-03-29T08:02:53.043Z,7.47
2019-03-29T08:05:19.790Z,7.40
2019-03-29T08:07:46.411Z,7.36
2019-03-29T08:10:24.024Z,7.37
2019-03-29T08:12:41.523Z,7.43
2019-03-29T08:15:09.865Z,7.54
2019-03-29T08:17:38.776Z,7.68
2019-03-29T08:20:36.303Z,7.87
2019-03-29T08:22:33.665Z,8.04
2019-03-29T08:25:00.938Z,8.18
2019-03-29T08:27:27.187Z,8.22
2019-03-29T08:29:53.325Z,8.18
2019-03-29T08:32:19.552Z,8.25
2019-03-29T08:34:45.724Z,8.49
2019-03-29T08:37:12.005Z,8.80
2019-03-29T08:39:38.239Z,9.12
2019-03-29T08:42:04.384Z,9.47
2019-03-29T08:44:30.605Z,9.72
2019-03-29T08:46:56.762Z,9.88
2019-03-29T08:49:22.966Z,10.03
2019-03-29T08:51:49.137Z,10.12
2019-03-29T08:54:15.423Z,10.18
2019-03-29T08:56:41.755Z,10.17
2019-03-29T08:59:07.984Z,10.10
2019-03-29T09:01:34.540Z,10.00
2019-03-29T09:04:05.495Z,9.80
2019-03-29T09:06:30.382Z,9.69
2019-03-29T09:08:56.895Z,9.67
2019-03-29T09:11:23.164Z,9.54
2019-03-29T09:13:49.498Z,9.40
2019-03-29T09:16:15.728Z,9.31
2019-03-29T09:18:41.830Z,9.36
2019-03-29T09:21:08.038Z,9.43
2019-03-29T09:23:34.191Z,9.46
2019-03-29T09:26:00.422Z,9.57
2019-03-29T09:28:26.640Z,9.78
2019-03-29T09:30:56.190Z,10.05
2019-03-29T09:33:20.930Z,10.22
2019-03-29T09:35:47.513Z,10.31
2019-03-29T09:38:14.912Z,10.41
2019-03-29T09:40:41.069Z,10.51
2019-03-29T09:43:08.191Z,10.67
2019-03-29T09:45:34.736Z,10.92
2019-03-29T09:48:00.974Z,11.28
2019-03-29T09:50:27.280Z,11.83
2019-03-29T09:52:53.549Z,11.99
2019-03-29T09:55:19.791Z,11.94
2019-03-29T09:57:46.017Z,11.74
2019-03-29T10:00:21.021Z,11.68
2019-03-29T10:02:40.830Z,11.81
2019-03-29T10:05:07.213Z,12.21
2019-03-29T10:07:33.591Z,13.06
2019-03-29T10:09:59.705Z,13.91
2019-03-29T10:12:25.921Z,14.32
2019-03-29T10:14:52.085Z,13.99
2019-03-29T10:17:18.240Z,13.88
2019-03-29T10:19:44.862Z,13.52
2019-03-29T10:22:11.060Z,13.53
2019-03-29T10:24:38.208Z,13.48
2019-03-29T10:27:04.626Z,13.46
2019-03-29T10:29:30.814Z,13.35
2019-03-29T10:31:57.032Z,13.37
2019-03-29T10:34:23.134Z,13.29
2019-03-29T10:36:49.346Z,13.09
2019-03-29T10:39:16.470Z,13.24
2019-03-29T10:41:42.674Z,14.44
2019-03-29T10:44:08.788Z,15.33
2019-03-29T10:46:34.990Z,15.57
2019-03-29T10:49:01.255Z,16.54
2019-03-29T10:51:27.493Z,16.55
2019-03-29T10:53:53.613Z,15.70
2019-03-29T10:56:33.418Z,15.56
2019-03-29T10:58:47.883Z,15.48
2019-03-29T11:01:14.044Z,15.33
2019-03-29T11:03:40.190Z,15.24
2019-03-29T11:06:06.335Z,14.99
2019-03-29T11:08:32.692Z,15.06
2019-03-29T11:10:58.919Z,18.06
2019-03-29T11:13:25.279Z,18.27
2019-03-29T11:15:51.623Z,20.63
2019-03-29T11:18:18.019Z,22.40
2019-03-29T11:20:44.237Z,23.50
2019-03-29T11:23:11.036Z,24.21
2019-03-29T11:25:37.391Z,24.70
2019-03-29T11:28:03.876Z,24.42
2019-03-29T11:30:41.441Z,23.27
2019-03-29T11:32:58.456Z,21.58
2019-03-29T11:35:24.852Z,20.89
2019-03-29T11:37:51.148Z,21.04
2019-03-29T11:40:17.378Z,20.43
2019-03-29T11:42:43.605Z,20.51
2019-03-29T11:45:09.926Z,21.93
2019-03-29T11:47:36.147Z,21.10
2019-03-29T11:50:03.709Z,23.16
2019-03-29T11:52:33.696Z,22.97
2019-03-29T11:54:58.430Z,24.41
2019-03-29T11:57:24.671Z,23.31
2019-03-29T11:59:51.046Z,24.90
2019-03-29T12:02:30.552Z,24.34
2019-03-29T12:04:45.402Z,22.87
2019-03-29T12:07:12.473Z,24.84
2019-03-29T12:09:40.268Z,25.69
2019-03-29T12:12:06.676Z,27.11
2019-03-29T12:14:33.897Z,28.20
2019-03-29T12:17:00.240Z,28.52
2019-03-29T12:19:26.379Z,28.28
2019-03-29T12:21:52.648Z,29.06
2019-03-29T12:24:18.902Z,28.90
2019-03-29T12:26:45.184Z,30.07
2019-03-29T12:29:11.714Z,30.76
2019-03-29T12:31:37.982Z,31.41
2019-03-29T12:34:04.163Z,31.54
2019-03-29T12:36:30.319Z,31.96
2019-03-29T12:38:56.622Z,31.91
2019-03-29T12:41:23.023Z,32.16
2019-03-29T12:43:55.413Z,32.35
2019-03-29T12:46:17.258Z,32.72
2019-03-29T12:48:43.939Z,32.84
2019-03-29T12:51:10.396Z,32.62
2019-03-29T12:53:36.634Z,31.46
2019-03-29T12:56:03.061Z,31.80
2019-03-29T12:58:29.382Z,31.27
2019-03-29T13:00:55.603Z,30.15
2019-03-29T13:03:21.861Z,29.82
2019-03-29T13:05:48.347Z,30.09
2019-03-29T13:08:14.536Z,30.53
2019-03-29T13:10:42.570Z,31.26
2019-03-29T13:13:09.067Z,31.78
2019-03-29T13:15:35.260Z,32.17
2019-03-29T13:18:01.486Z,31.64
2019-03-29T13:20:27.612Z,31.86
2019-03-29T13:22:53.983Z,32.83
2019-03-29T13:25:20.299Z,33.38
2019-03-29T13:27:47.455Z,33.63
2019-03-29T13:30:17.139Z,33.82
2019-03-29T13:32:43.026Z,33.33
2019-03-29T13:35:09.512Z,33.77
2019-03-29T13:37:35.679Z,33.93
2019-03-29T13:40:03.751Z,33.89
2019-03-29T13:42:29.987Z,33.69
2019-03-29T13:44:56.303Z,33.97
2019-03-29T13:47:22.474Z,34.34
2019-03-29T13:49:48.612Z,33.95
2019-03-29T13:52:14.778Z,34.34
2019-03-29T13:54:41.016Z,34.64
2019-03-29T13:57:07.174Z,34.64
2019-03-29T13:59:33.360Z,34.35
2019-03-29T14:01:59.507Z,34.53
2019-03-29T14:04:25.724Z,34.53
2019-03-29T14:06:51.886Z,34.97
2019-03-29T14:09:18.124Z,35.41
2019-03-29T14:11:44.381Z,35.43
2019-03-29T14:14:10.732Z,34.88
2019-03-29T14:16:37.208Z,33.87
2019-03-29T14:19:03.494Z,32.94
2019-03-29T14:21:29.623Z,32.47
2019-03-29T14:23:56.981Z,32.56
2019-03-29T14:26:23.119Z,32.34
2019-03-29T14:28:49.337Z,31.94
2019-03-29T14:31:15.436Z,31.77
2019-03-29T14:33:41.641Z,32.05
2019-03-29T14:36:07.739Z,32.27
2019-03-29T14:38:34.072Z,32.00
2019-03-29T14:41:00.238Z,31.45
2019-03-29T14:43:26.540Z,30.62
2019-03-29T14:45:52.758Z,30.16
2019-03-29T14:48:19.009Z,30.20
2019-03-29T14:50:45.128Z,30.22
2019-03-29T14:53:11.680Z,30.27
2019-03-29T14:55:37.753Z,30.39
2019-03-29T14:58:04.262Z,30.20
2019-03-29T15:00:44.313Z,29.99
2019-03-29T15:03:10.964Z,29.99
2019-03-29T15:05:37.997Z,30.00
2019-03-29T15:08:04.362Z,29.61
2019-03-29T15:10:30.850Z,28.70
2019-03-29T15:12:57.495Z,27.18
2019-03-29T15:15:23.828Z,26.04
2019-03-29T15:17:50.125Z,25.30
2019-03-29T15:20:16.422Z,24.55
2019-03-29T15:22:42.733Z,23.96
2019-03-29T15:25:09.143Z,23.41
2019-03-29T15:27:35.414Z,23.00
2019-03-29T15:30:02.982Z,22.58
2019-03-29T15:32:31.052Z,22.31
2019-03-29T15:34:58.988Z,22.20
2019-03-29T15:37:25.400Z,21.79
2019-03-29T15:39:55.177Z,21.33
2019-03-29T15:42:22.562Z,20.91
2019-03-29T15:44:48.737Z,20.51
2019-03-29T15:47:14.935Z,20.18
2019-03-29T15:49:55.097Z,19.84
2019-03-29T15:52:09.429Z,19.58
2019-03-29T15:54:37.572Z,19.24
2019-03-29T15:57:03.933Z,18.85
2019-03-29T15:59:30.183Z,18.74
2019-03-29T16:01:56.456Z,18.51
2019-03-29T16:04:23.128Z,18.29
2019-03-29T16:06:49.375Z,18.12
2019-03-29T16:09:15.597Z,17.93
2019-03-29T16:11:41.807Z,17.75
2019-03-29T16:14:08.084Z,17.58
2019-03-29T16:16:34.246Z,17.44
2019-03-29T16:19:00.391Z,17.30
2019-03-29T16:21:26.625Z,17.18
2019-03-29T16:23:52.781Z,17.08
2019-03-29T16:26:19.586Z,16.96
2019-03-29T16:28:45.831Z,16.86
2019-03-29T16:31:12.158Z,16.80
2019-03-29T16:33:38.825Z,16.67
2019-03-29T16:36:05.341Z,16.53
2019-03-29T16:38:31.492Z,16.42
2019-03-29T16:40:58.039Z,16.30
2019-03-29T16:43:24.127Z,16.18
2019-03-29T16:45:50.609Z,16.08
2019-03-29T16:48:16.777Z,16.00
2019-03-29T16:50:43.041Z,15.90
2019-03-29T16:53:09.209Z,15.78
2019-03-29T16:55:35.381Z,15.66
2019-03-29T16:58:02.666Z,15.55
2019-03-29T17:00:28.980Z,15.43
2019-03-29T17:02:55.144Z,15.32
2019-03-29T17:05:21.665Z,15.20
2019-03-29T17:07:48.113Z,15.07
2019-03-29T17:10:14.937Z,14.93
2019-03-29T17:12:41.803Z,14.77
2019-03-29T17:15:08.499Z,14.67
2019-03-29T17:17:34.929Z,14.53
2019-03-29T17:20:02.256Z,14.40
2019-03-29T17:22:29.526Z,14.20
2019-03-29T17:24:57.125Z,14.05
2019-03-29T17:27:24.367Z,13.88
2019-03-29T17:29:50.978Z,13.73
2019-03-29T17:32:17.692Z,13.58
2019-03-29T17:34:44.656Z,13.42
2019-03-29T17:37:11.502Z,13.19
2019-03-29T17:39:38.475Z,13.01
2019-03-29T17:42:04.884Z,12.88
2019-03-29T17:44:31.154Z,12.70
2019-03-29T17:46:57.401Z,12.50
2019-03-29T17:49:23.725Z,12.31
2019-03-29T17:51:50.068Z,12.10
2019-03-29T17:54:16.250Z,11.89
2019-03-29T17:56:42.533Z,11.69
2019-03-29T17:59:08.812Z,11.55
2019-03-29T18:01:35.105Z,11.44
2019-03-29T18:04:02.155Z,11.31
2019-03-29T18:06:28.303Z,11.17
2019-03-29T18:08:55.141Z,11.07
2019-03-29T18:11:22.297Z,10.98
2019-03-29T18:13:48.549Z,10.84
2019-03-29T18:16:29.557Z,10.72
2019-03-29T18:18:43.608Z,10.66
2019-03-29T18:21:09.772Z,10.63
2019-03-29T18:23:36.349Z,10.57
2019-03-29T18:26:02.901Z,10.51
2019-03-29T18:28:29.456Z,10.47
2019-03-29T18:30:56.144Z,10.35
2019-03-29T18:33:22.989Z,10.17
2019-03-29T18:35:49.670Z,10.01
2019-03-29T18:38:16.358Z,9.84
2019-03-29T18:40:42.524Z,9.67
2019-03-29T18:43:08.791Z,9.56
2019-03-29T18:45:35.427Z,9.45
2019-03-29T18:48:01.587Z,9.38
2019-03-29T18:50:27.931Z,9.34
2019-03-29T18:52:54.263Z,9.29
2019-03-29T18:55:20.622Z,9.24
2019-03-29T18:57:47.183Z,9.11
2019-03-29T19:00:17.449Z,8.97
2019-03-29T19:02:43.842Z,8.88
2019-03-29T19:05:22.688Z,8.60
2019-03-29T19:07:49.996Z,8.54
2019-03-29T19:10:17.745Z,8.45
2019-03-29T19:12:43.981Z,8.39
2019-03-29T19:15:10.456Z,8.30
2019-03-29T19:17:37.092Z,8.15
2019-03-29T19:20:10.367Z,8.04
2019-03-29T19:22:33.265Z,8.03
2019-03-29T19:24:59.717Z,8.04
2019-03-29T19:27:26.007Z,8.01
2019-03-29T19:29:52.980Z,8.03
2019-03-29T19:32:19.934Z,8.08
2019-03-29T19:34:46.297Z,8.07
2019-03-29T19:37:12.712Z,8.04
2019-03-29T19:39:39.433Z,8.06
2019-03-29T19:42:05.780Z,8.11
2019-03-29T19:44:31.882Z,8.13
2019-03-29T19:47:12.515Z,8.12
2019-03-29T19:49:26.175Z,8.10
2019-03-29T19:51:52.433Z,8.11
2019-03-29T19:54:18.585Z,8.11
2019-03-29T19:56:44.763Z,8.06
2019-03-29T19:59:11.334Z,8.04
2019-03-29T20:01:37.888Z,8.03
2019-03-29T20:04:04.287Z,8.13
2019-03-29T20:06:30.611Z,8.12
2019-03-29T20:08:56.993Z,8.08
2019-03-29T20:11:23.429Z,8.10
2019-03-29T20:13:49.530Z,8.13
2019-03-29T20:16:15.914Z,8.14
2019-03-29T20:18:42.404Z,8.14
2019-03-29T20:21:08.626Z,8.11
2019-03-29T20:23:35.874Z,8.05
2019-03-29T20:26:03.495Z,8.00
2019-03-29T20:28:29.643Z,7.97
2019-03-29T20:30:55.919Z,7.93
2019-03-29T20:33:22.566Z,7.85
2019-03-29T20:35:49.001Z,7.81
2019-03-29T20:38:15.213Z,7.69
2019-03-29T20:40:41.821Z,7.62
2019-03-29T20:43:08.585Z,7.56
2019-03-29T20:45:34.913Z,7.56
2019-03-29T20:48:01.207Z,7.53
2019-03-29T20:50:27.462Z,7.44
2019-03-29T20:52:53.698Z,7.37
2019-03-29T20:55:20.124Z,7.31
2019-03-29T20:57:46.373Z,7.19
2019-03-29T21:00:15.496Z,7.12
2019-03-29T21:02:41.807Z,7.06
2019-03-29T21:05:08.144Z,7.03
2019-03-29T21:07:34.579Z,7.00
2019-03-29T21:10:00.946Z,6.98
2019-03-29T21:12:27.231Z,6.99
2019-03-29T21:14:53.618Z,6.95
2019-03-29T21:17:19.952Z,6.83
2019-03-29T21:19:46.215Z,6.71
2019-03-29T21:22:12.471Z,6.67
2019-03-29T21:24:38.700Z,6.63
2019-03-29T21:27:04.830Z,6.58
2019-03-29T21:29:31.047Z,6.54
2019-03-29T21:31:57.196Z,6.47
2019-03-29T21:34:23.504Z,6.37
2019-03-29T21:36:49.764Z,6.32
2019-03-29T21:39:15.974Z,6.29
2019-03-29T21:41:42.190Z,6.25
2019-03-29T21:44:08.290Z,6.23
2019-03-29T21:46:34.634Z,6.19
2019-03-29T21:49:00.735Z,6.16
2019-03-29T21:51:27.031Z,6.12
2019-03-29T21:53:53.128Z,6.15
2019-03-29T21:56:19.363Z,6.24
2019-03-29T21:58:45.619Z,6.29
2019-03-29T22:01:12.104Z,6.32
2019-03-29T22:03:38.275Z,6.37
2019-03-29T22:06:04.515Z,6.34
2019-03-29T22:08:30.702Z,6.33
2019-03-29T22:10:56.931Z,6.33
2019-03-29T22:13:23.078Z,6.28
2019-03-29T22:15:49.327Z,6.28
2019-03-29T22:18:15.470Z,6.27
2019-03-29T22:20:42.822Z,6.23
2019-03-29T22:23:09.123Z,6.22
2019-03-29T22:25:35.412Z,6.22
2019-03-29T22:28:01.677Z,6.21
2019-03-29T22:30:28.028Z,6.21
2019-03-29T22:32:54.242Z,6.21
2019-03-29T22:35:20.367Z,6.22
2019-03-29T22:37:46.678Z,6.27
2019-03-29T22:40:13.024Z,6.27
2019-03-29T22:42:39.290Z,6.31
2019-03-29T22:45:06.306Z,6.33
2019-03-29T22:47:32.567Z,6.30
2019-03-29T22:49:58.674Z,6.28
2019-03-29T22:52:24.902Z,6.28
2019-03-29T22:54:51.024Z,6.31
2019-03-29T22:57:17.348Z,6.40
2019-03-29T22:59:43.525Z,6.41
2019-03-29T23:02:09.892Z,6.40
2019-03-29T23:04:36.056Z,6.42
2019-03-29T23:07:02.305Z,6.37
2019-03-29T23:09:28.529Z,6.35
2019-03-29T23:11:54.519Z,6.34
2019-03-29T23:14:20.723Z,6.32
2019-03-29T23:16:47.227Z,6.31
2019-03-29T23:19:13.440Z,6.29
2019-03-29T23:21:39.587Z,6.31
2019-03-29T23:24:05.876Z,6.30
2019-03-29T23:26:32.123Z,6.30
2019-03-29T23:28:58.453Z,6.30
2019-03-29T23:31:24.683Z,6.30
2019-03-29T23:33:51.023Z,6.33
2019-03-29T23:36:17.225Z,6.33
2019-03-29T23:38:43.472Z,6.29
2019-03-29T23:41:09.763Z,6.31
2019-03-29T23:43:36.079Z,6.32
2019-03-29T23:46:02.300Z,6.34
2019-03-29T23:48:28.403Z,6.30
2019-03-29T23:50:54.613Z,6.25
2019-03-29T23:53:20.951Z,6.18
2019-03-29T23:55:47.203Z,6.21
2019-03-29T23:58:13.490Z,6.21
